createdAt,value
2022-10-03T00:00:03.070Z,100453.75
2022-10-03T00:02:42.793Z,100431.09
2022-10-03T00:05:28.195Z,100450.34
2022-10-03T00:08:08.932Z,100446.13
2022-10-03T00:10:49.314Z,100461.97
2022-10-03T00:13:27.255Z,100467.91
2022-10-03T00:16:07.442Z,100462.47
2022-10-03T00:18:45.255Z,100458.84
2022-10-03T00:21:26.826Z,100446.81
2022-10-03T00:24:11.166Z,100442.28
2022-10-03T00:26:46.637Z,100441.03
2022-10-03T00:29:37.612Z,100435.81
2022-10-03T00:32:23.410Z,100427.34
2022-10-03T00:35:03.894Z,100421.56
2022-10-03T00:37:37.250Z,100429.13
2022-10-03T00:40:36.086Z,100422.47
2022-10-03T00:43:32.400Z,100421.03
2022-10-03T00:46:25.920Z,100425.59
2022-10-03T00:49:28.079Z,100435.34
2022-10-03T00:52:15.706Z,100431.81
2022-10-03T00:54:56.117Z,100444.28
2022-10-03T00:57:49.195Z,100435.63
2022-10-03T01:00:24.883Z,100421.63
2022-10-03T01:03:09.792Z,100418.66
2022-10-03T01:05:49.647Z,100418.03
2022-10-03T01:08:41.199Z,100405.25
2022-10-03T01:11:22.649Z,100399.06
2022-10-03T01:14:03.135Z,100399.72
2022-10-03T01:16:40.137Z,100402.59
2022-10-03T01:19:29.517Z,100404.72
2022-10-03T01:22:15.222Z,100399.34
2022-10-03T01:24:58.627Z,100410.00
2022-10-03T01:28:00.767Z,100416.41
2022-10-03T01:30:35.638Z,100418.81
2022-10-03T01:33:11.979Z,100423.34
2022-10-03T01:35:49.170Z,100431.91
2022-10-03T01:38:23.476Z,100429.84
2022-10-03T01:41:03.066Z,100425.69
2022-10-03T01:43:38.354Z,100430.28
2022-10-03T01:46:18.019Z,100429.88
2022-10-03T01:48:56.034Z,100433.94
2022-10-03T01:51:30.282Z,100423.28
2022-10-03T01:54:15.081Z,100423.28
2022-10-03T01:56:47.638Z,100424.69
2022-10-03T01:59:21.416Z,100435.09
2022-10-03T02:01:56.807Z,100425.50
2022-10-03T02:04:38.662Z,100427.34
2022-10-03T02:07:21.598Z,100423.88
2022-10-03T02:09:59.268Z,100428.66
2022-10-03T02:12:35.112Z,100426.38
2022-10-03T02:15:14.461Z,100439.47
2022-10-03T02:17:55.638Z,100443.66
2022-10-03T02:20:32.203Z,100446.16
2022-10-03T02:23:01.083Z,100451.25
2022-10-03T02:25:49.411Z,100451.59
2022-10-03T02:28:49.939Z,100452.25
2022-10-03T02:32:07.207Z,100441.44
2022-10-03T02:35:07.965Z,100438.63
2022-10-03T02:38:07.302Z,100446.00
2022-10-03T02:40:57.135Z,100447.06
2022-10-03T02:44:09.931Z,100439.34
2022-10-03T02:47:22.838Z,100440.91
2022-10-03T02:50:24.535Z,100435.59
2022-10-03T02:53:20.943Z,100411.53
2022-10-03T02:56:25.447Z,100432.78
2022-10-03T02:59:28.792Z,100437.50
2022-10-03T03:02:17.322Z,100453.72
2022-10-03T03:05:22.831Z,100454.78
2022-10-03T03:08:19.607Z,100441.16
2022-10-03T03:11:17.053Z,100438.53
2022-10-03T03:14:27.207Z,100443.72
2022-10-03T03:17:02.127Z,100437.03
2022-10-03T03:19:44.886Z,100422.69
2022-10-03T03:22:32.396Z,100417.06
2022-10-03T03:25:22.860Z,100409.91
2022-10-03T03:28:04.614Z,100410.59
2022-10-03T03:30:42.335Z,100401.19
2022-10-03T03:33:22.031Z,100398.66
2022-10-03T03:35:58.942Z,100399.28
2022-10-03T03:38:33.528Z,100392.59
2022-10-03T03:41:22.542Z,100335.81
2022-10-03T03:44:15.869Z,100371.59
2022-10-03T03:47:04.828Z,100378.56
2022-10-03T03:49:47.807Z,100378.88
2022-10-03T03:52:35.244Z,100384.84
2022-10-03T03:55:21.166Z,100391.53
2022-10-03T03:58:13.811Z,100395.69
2022-10-03T04:01:01.687Z,100391.31
2022-10-03T04:03:46.317Z,100379.75
2022-10-03T04:06:32.632Z,100381.31
2022-10-03T04:09:25.581Z,100379.69
2022-10-03T04:12:00.674Z,100382.31
2022-10-03T04:14:53.510Z,100384.19
2022-10-03T04:17:55.221Z,100362.56
2022-10-03T04:20:44.571Z,100367.28
2022-10-03T04:23:30.753Z,100392.19
2022-10-03T04:26:22.833Z,100384.75
2022-10-03T04:29:18.086Z,100393.19
2022-10-03T04:31:57.306Z,100394.84
2022-10-03T04:34:41.182Z,100410.66
2022-10-03T04:37:26.121Z,100411.03
2022-10-03T04:40:07.927Z,100413.34
2022-10-03T04:42:48.097Z,100415.22
2022-10-03T04:45:32.564Z,100420.53
2022-10-03T04:48:12.992Z,100415.63
2022-10-03T04:50:46.186Z,100433.34
2022-10-03T04:53:24.846Z,100425.63
2022-10-03T04:55:57.990Z,100439.56
2022-10-03T04:58:38.785Z,100426.06
2022-10-03T05:01:17.008Z,100441.34
2022-10-03T05:03:55.014Z,100448.66
2022-10-03T05:06:36.394Z,100428.94
2022-10-03T05:09:22.037Z,100449.03
2022-10-03T05:11:58.809Z,100453.31
2022-10-03T05:14:39.328Z,100451.25
2022-10-03T05:17:17.626Z,100447.59
2022-10-03T05:20:03.116Z,100452.03
2022-10-03T05:22:45.042Z,100447.66
2022-10-03T05:25:27.938Z,100446.16
2022-10-03T05:28:05.915Z,100437.78
2022-10-03T05:30:42.769Z,100433.06
2022-10-03T05:33:21.364Z,100420.94
2022-10-03T05:36:07.619Z,100408.25
2022-10-03T05:39:35.457Z,100406.81
2022-10-03T05:42:37.350Z,100416.09
2022-10-03T05:45:22.513Z,100420.03
2022-10-03T05:47:53.360Z,100415.16
2022-10-03T05:50:58.380Z,100418.97
2022-10-03T05:53:38.765Z,100414.03
2022-10-03T05:56:14.662Z,100415.91
2022-10-03T05:59:17.774Z,100405.69
2022-10-03T06:02:20.725Z,100413.75
2022-10-03T06:05:11.713Z,100423.25
2022-10-03T06:07:55.335Z,100436.31
2022-10-03T06:10:51.035Z,100432.75
2022-10-03T06:13:38.710Z,100416.13
2022-10-03T06:16:23.241Z,100429.16
2022-10-03T06:19:25.195Z,100421.56
2022-10-03T06:22:36.713Z,100381.06
2022-10-03T06:25:41.623Z,100438.09
2022-10-03T06:28:39.577Z,100439.88
2022-10-03T06:31:43.713Z,100438.00
2022-10-03T06:34:57.785Z,100431.38
2022-10-03T06:38:10.594Z,100433.38
2022-10-03T06:41:13.910Z,100429.44
2022-10-03T06:43:58.160Z,100423.78
2022-10-03T06:46:41.245Z,100438.25
2022-10-03T06:50:01.961Z,100434.94
2022-10-03T06:53:14.671Z,100439.91
2022-10-03T06:56:05.985Z,100441.78
2022-10-03T06:59:12.426Z,100444.66
2022-10-03T07:02:35.945Z,100439.19
2022-10-03T07:05:54.140Z,100445.25
2022-10-03T07:09:09.890Z,100451.31
2022-10-03T07:11:56.187Z,100442.19
2022-10-03T07:14:55.998Z,100447.03
2022-10-03T07:17:44.121Z,100437.06
2022-10-03T07:20:41.691Z,100439.88
2022-10-03T07:23:40.716Z,100439.31
2022-10-03T07:26:44.454Z,100440.72
2022-10-03T07:29:28.234Z,100434.66
2022-10-03T07:32:13.005Z,100434.91
2022-10-03T07:35:09.499Z,100433.00
2022-10-03T07:38:17.061Z,100434.44
2022-10-03T07:41:16.839Z,100437.78
2022-10-03T07:44:05.725Z,100427.06
2022-10-03T07:47:13.083Z,100416.38
2022-10-03T07:49:58.574Z,100421.34
2022-10-03T07:52:54.727Z,100419.22
2022-10-03T07:55:29.832Z,100414.69
2022-10-03T07:58:21.263Z,100421.00
2022-10-03T08:01:09.555Z,100411.56
2022-10-03T08:04:16.133Z,100408.34
2022-10-03T08:06:46.090Z,100410.34
2022-10-03T08:09:52.164Z,100404.44
2022-10-03T08:12:59.081Z,100413.59
2022-10-03T08:15:36.903Z,100413.41
2022-10-03T08:18:35.484Z,100412.00
2022-10-03T08:21:06.522Z,100420.50
2022-10-03T08:23:53.921Z,100421.63
2022-10-03T08:26:38.319Z,100417.31
2022-10-03T08:29:22.994Z,100420.75
2022-10-03T08:32:38.169Z,100417.69
2022-10-03T08:35:19.082Z,100419.72
2022-10-03T08:38:18.018Z,100425.22
2022-10-03T08:41:16.689Z,100424.84
2022-10-03T08:44:18.145Z,100424.75
2022-10-03T08:47:22.610Z,100417.38
2022-10-03T08:50:23.851Z,100422.03
2022-10-03T08:53:20.653Z,100421.63
2022-10-03T08:55:57.750Z,100423.56
2022-10-03T08:59:02.743Z,100425.19
2022-10-03T09:01:44.312Z,100418.72
2022-10-03T09:04:53.740Z,100420.25
2022-10-03T09:07:53.970Z,100422.63
2022-10-03T09:10:38.361Z,100406.47
2022-10-03T09:13:35.815Z,100422.94
2022-10-03T09:16:26.937Z,100417.56
2022-10-03T09:19:21.945Z,100421.59
2022-10-03T09:22:09.660Z,100412.31
2022-10-03T09:25:08.125Z,100413.97
2022-10-03T09:27:50.406Z,100420.59
2022-10-03T09:30:24.932Z,100409.97
2022-10-03T09:33:24.625Z,100408.34
2022-10-03T09:36:32.837Z,100410.09
2022-10-03T09:39:21.434Z,100405.22
2022-10-03T09:42:23.404Z,100406.56
2022-10-03T09:45:37.136Z,100397.00
2022-10-03T09:48:24.594Z,100391.34
2022-10-03T09:51:15.405Z,100401.00
2022-10-03T09:54:19.455Z,100396.22
2022-10-03T09:57:13.962Z,100390.47
2022-10-03T10:00:16.973Z,100394.69
2022-10-03T10:03:30.298Z,100376.47
2022-10-03T10:06:36.055Z,100385.94
2022-10-03T10:09:40.957Z,100372.97
2022-10-03T10:12:54.482Z,100375.44
2022-10-03T10:15:41.387Z,100378.78
2022-10-03T10:18:55.521Z,100371.44
2022-10-03T10:21:53.369Z,100378.66
2022-10-03T10:24:46.824Z,100383.09
2022-10-03T10:28:00.243Z,100377.41
2022-10-03T10:30:52.503Z,100375.34
2022-10-03T10:34:01.843Z,100364.03
2022-10-03T10:37:20.639Z,100341.41
2022-10-03T10:40:19.593Z,100358.59
2022-10-03T10:43:16.706Z,100360.03
2022-10-03T10:45:56.251Z,100358.22
2022-10-03T10:49:07.437Z,100361.19
2022-10-03T10:51:57.194Z,100327.34
2022-10-03T10:54:46.405Z,100331.53
2022-10-03T10:57:34.220Z,100345.81
2022-10-03T11:00:22.646Z,100340.41
2022-10-03T11:03:35.169Z,100347.25
2022-10-03T11:06:35.582Z,100328.72
2022-10-03T11:09:47.701Z,100338.59
2022-10-03T11:12:51.585Z,100335.47
2022-10-03T11:15:58.879Z,100333.19
2022-10-03T11:19:03.125Z,100331.94
2022-10-03T11:22:00.762Z,100327.97
2022-10-03T11:25:13.151Z,100332.03
2022-10-03T11:28:27.849Z,100327.53
2022-10-03T11:31:34.826Z,100315.72
2022-10-03T11:34:35.242Z,100305.25
2022-10-03T11:37:11.710Z,100311.00
2022-10-03T11:39:50.277Z,100313.28
2022-10-03T11:42:39.883Z,100312.38
2022-10-03T11:45:24.285Z,100314.25
2022-10-03T11:47:58.826Z,100310.72
2022-10-03T11:50:36.563Z,100308.41
2022-10-03T11:53:22.240Z,100308.56
2022-10-03T11:56:00.049Z,100308.28
2022-10-03T11:58:52.683Z,100291.31
2022-10-03T12:01:31.061Z,100289.53
2022-10-03T12:04:10.747Z,100294.97
2022-10-03T12:07:19.709Z,100284.84
2022-10-03T12:09:59.873Z,100289.06
2022-10-03T12:12:36.486Z,100284.25
2022-10-03T12:15:21.401Z,100282.63
2022-10-03T12:18:00.392Z,100274.91
2022-10-03T12:20:36.437Z,100270.06
2022-10-03T12:23:24.304Z,100264.47
2022-10-03T12:25:53.906Z,100264.31
2022-10-03T12:28:28.299Z,100263.59
2022-10-03T12:31:01.393Z,100258.09
2022-10-03T12:33:48.086Z,100256.16
2022-10-03T12:36:19.711Z,100248.50
2022-10-03T12:39:02.212Z,100252.78
2022-10-03T12:41:57.302Z,100238.78
2022-10-03T12:44:36.319Z,100235.69
2022-10-03T12:47:43.959Z,100238.22
2022-10-03T12:50:29.066Z,100228.91
2022-10-03T12:53:21.283Z,100239.34
2022-10-03T12:56:03.447Z,100239.63
2022-10-03T12:58:40.227Z,100239.50
2022-10-03T13:01:18.105Z,100225.78
2022-10-03T13:03:53.474Z,100238.19
2022-10-03T13:07:02.902Z,100214.75
2022-10-03T13:09:53.813Z,100224.97
2022-10-03T13:12:34.374Z,100223.59
2022-10-03T13:15:44.508Z,100209.16
2022-10-03T13:18:51.792Z,100224.59
2022-10-03T13:21:44.926Z,100224.13
2022-10-03T13:24:27.370Z,100219.19
2022-10-03T13:27:04.240Z,100215.50
2022-10-03T13:29:40.575Z,100214.72
2022-10-03T13:32:18.303Z,100221.06
2022-10-03T13:35:42.030Z,100217.91
2022-10-03T13:38:32.729Z,100254.41
2022-10-03T13:41:15.410Z,100256.41
2022-10-03T13:43:50.122Z,100251.56
2022-10-03T13:46:25.184Z,100269.06
2022-10-03T13:49:02.103Z,100257.72
2022-10-03T13:51:44.582Z,100252.25
2022-10-03T13:54:21.351Z,100245.41
2022-10-03T13:56:56.289Z,100251.34
2022-10-03T13:59:38.682Z,100253.28
2022-10-03T14:02:35.571Z,100250.22
2022-10-03T14:05:39.559Z,100239.03
2022-10-03T14:08:15.682Z,100230.03
2022-10-03T14:11:14.418Z,100227.75
2022-10-03T14:14:00.019Z,100220.09
2022-10-03T14:16:31.398Z,100195.16
2022-10-03T14:19:09.373Z,100204.06
2022-10-03T14:21:51.098Z,100202.09
2022-10-03T14:24:39.479Z,100191.72
2022-10-03T14:27:25.152Z,100192.47
2022-10-03T14:30:03.781Z,100190.25
2022-10-03T14:32:53.611Z,100192.53
2022-10-03T14:35:38.104Z,100180.03
2022-10-03T14:39:01.945Z,100204.09
2022-10-03T14:41:46.855Z,100212.88
2022-10-03T14:44:20.118Z,100249.25
2022-10-03T14:46:55.869Z,100267.81
2022-10-03T14:52:27.143Z,100265.69
2022-10-03T14:54:58.026Z,100263.50
2022-10-03T14:57:47.644Z,100245.25
2022-10-03T15:00:28.087Z,100251.06
2022-10-03T15:02:57.526Z,100259.63
2022-10-03T15:05:36.244Z,100266.53
2022-10-03T15:08:16.191Z,100270.00
2022-10-03T15:10:46.240Z,100271.75
2022-10-03T15:13:19.222Z,100270.38
2022-10-03T15:15:49.313Z,100275.94
2022-10-03T15:18:24.392Z,100268.69
2022-10-03T15:20:55.377Z,100273.69
2022-10-03T15:23:28.959Z,100275.13
2022-10-03T15:25:58.690Z,100279.22
2022-10-03T15:28:30.934Z,100287.84
2022-10-03T15:31:11.637Z,100295.31
2022-10-03T15:33:43.170Z,100298.91
2022-10-03T15:36:15.945Z,100304.69
2022-10-03T15:38:46.766Z,100309.56
2022-10-03T15:41:17.787Z,100310.09
2022-10-03T15:43:52.505Z,100302.78
2022-10-03T15:46:32.990Z,100309.41
2022-10-03T15:49:06.133Z,100306.38
2022-10-03T15:51:39.041Z,100318.53
2022-10-03T15:54:10.167Z,100268.28
2022-10-03T15:56:42.359Z,100309.16
2022-10-03T15:59:23.722Z,100312.47
2022-10-03T16:01:55.718Z,100311.75
2022-10-03T16:04:29.149Z,100320.84
2022-10-03T16:07:04.085Z,100322.13
2022-10-03T16:09:46.561Z,100324.31
2022-10-03T16:12:48.177Z,100328.84
2022-10-03T16:15:22.691Z,100327.63
2022-10-03T16:17:54.459Z,100335.06
2022-10-03T16:20:29.053Z,100321.94
2022-10-03T16:22:59.937Z,100338.38
2022-10-03T16:25:30.681Z,100341.13
2022-10-03T16:28:03.324Z,100343.34
2022-10-03T16:30:38.510Z,100354.38
2022-10-03T16:33:17.593Z,100355.06
2022-10-03T16:35:49.810Z,100351.59
2022-10-03T16:38:23.481Z,100353.69
2022-10-03T16:40:58.345Z,100359.56
2022-10-03T16:43:27.542Z,100360.72
2022-10-03T16:45:56.982Z,100375.06
2022-10-03T16:48:45.606Z,100366.38
2022-10-03T16:51:21.321Z,100363.34
2022-10-03T16:53:51.235Z,100373.97
2022-10-03T16:56:24.497Z,100375.88
2022-10-03T16:58:54.773Z,100374.78
2022-10-03T17:01:33.888Z,100376.38
2022-10-03T17:04:17.210Z,100371.94
2022-10-03T17:06:49.918Z,100382.63
2022-10-03T17:09:24.747Z,100374.94
2022-10-03T17:11:55.778Z,100377.69
2022-10-03T17:14:27.156Z,100384.13
2022-10-03T17:17:03.103Z,100377.78
2022-10-03T17:19:36.630Z,100380.75
2022-10-03T17:22:15.138Z,100380.75
2022-10-03T17:24:50.387Z,100379.81
2022-10-03T17:27:25.973Z,100389.78
2022-10-03T17:29:59.893Z,100388.41
2022-10-03T17:32:30.108Z,100395.44
2022-10-03T17:35:05.630Z,100387.91
2022-10-03T17:38:44.437Z,100389.84
2022-10-03T17:41:17.262Z,100402.72
2022-10-03T17:43:50.899Z,100397.38
2022-10-03T17:46:24.628Z,100399.91
2022-10-03T17:49:02.567Z,100403.34
2022-10-03T17:51:36.654Z,100366.44
2022-10-03T17:54:15.956Z,100405.06
2022-10-03T17:56:49.432Z,100403.41
2022-10-03T17:59:24.268Z,100412.31
2022-10-03T18:01:54.827Z,100414.81
2022-10-03T18:04:34.731Z,100415.38
2022-10-03T18:07:10.432Z,100419.50
2022-10-03T18:09:45.720Z,100424.94
2022-10-03T18:12:22.687Z,100413.75
2022-10-03T18:15:43.648Z,100428.00
2022-10-03T18:18:57.440Z,100431.34
2022-10-03T18:21:40.192Z,100437.78
2022-10-03T18:24:20.938Z,100441.94
2022-10-03T18:27:03.830Z,100433.00
2022-10-03T18:29:36.869Z,100436.22
2022-10-03T18:32:14.503Z,100446.78
2022-10-03T18:34:48.312Z,100432.06
2022-10-03T18:37:52.325Z,100448.97
2022-10-03T18:40:26.702Z,100460.94
2022-10-03T18:42:56.907Z,100461.19
2022-10-03T18:45:30.859Z,100472.47
2022-10-03T18:48:01.158Z,100471.03
2022-10-03T18:50:33.534Z,100480.78
2022-10-03T18:53:18.623Z,100477.31
2022-10-03T18:55:51.089Z,100479.34
2022-10-03T18:58:25.290Z,100486.94
2022-10-03T19:01:00.126Z,100489.81
2022-10-03T19:03:36.033Z,100487.19
2022-10-03T19:06:08.290Z,100501.75
2022-10-03T19:08:41.518Z,100506.84
2022-10-03T19:11:15.874Z,100497.22
2022-10-03T19:13:53.142Z,100497.94
2022-10-03T19:16:36.129Z,100503.28
2022-10-03T19:19:08.948Z,100503.88
2022-10-03T19:21:40.075Z,100512.50
2022-10-03T19:24:14.509Z,100512.72
2022-10-03T19:26:47.491Z,100504.78
2022-10-03T19:29:22.847Z,100519.72
2022-10-03T19:32:01.669Z,100521.72
2022-10-03T19:34:37.052Z,100512.47
2022-10-03T19:37:09.070Z,100525.19
2022-10-03T19:39:39.765Z,100521.97
2022-10-03T19:42:23.259Z,100528.22
2022-10-03T19:44:57.086Z,100537.88
2022-10-03T19:47:31.381Z,100530.53
2022-10-03T19:50:08.662Z,100534.81
2022-10-03T19:52:41.663Z,100534.81
2022-10-03T19:55:15.954Z,100545.78
2022-10-03T19:57:48.891Z,100539.63
2022-10-03T20:00:28.156Z,100527.78
2022-10-03T20:03:05.513Z,100536.72
2022-10-03T20:05:41.944Z,100529.13
2022-10-03T20:08:22.990Z,100541.00
2022-10-03T20:11:07.465Z,100544.84
2022-10-03T20:13:35.434Z,100543.41
2022-10-03T20:16:06.036Z,100535.25
2022-10-03T20:18:35.657Z,100529.72
2022-10-03T20:21:10.105Z,100538.75
2022-10-03T20:23:42.130Z,100542.06
2022-10-03T20:26:26.290Z,100549.44
2022-10-03T20:29:15.763Z,100552.50
2022-10-03T20:31:45.906Z,100566.69
2022-10-03T20:34:19.767Z,100566.50
2022-10-03T20:36:51.392Z,100561.41
2022-10-03T20:39:24.398Z,100560.59
2022-10-03T20:42:01.624Z,100568.84
2022-10-03T20:44:49.233Z,100563.94
2022-10-03T20:47:32.191Z,100565.84
2022-10-03T20:50:03.648Z,100551.78
2022-10-03T20:52:33.610Z,100566.69
2022-10-03T20:55:06.324Z,100562.31
2022-10-03T20:57:43.771Z,100562.06
2022-10-03T21:00:21.992Z,100548.34
2022-10-03T21:02:57.972Z,100549.78
2022-10-03T21:05:29.885Z,100546.97
2022-10-03T21:08:00.476Z,100556.66
2022-10-03T21:10:32.394Z,100558.97
2022-10-03T21:13:03.350Z,100564.19
2022-10-03T21:15:39.293Z,100561.88
2022-10-03T21:18:18.011Z,100560.53
2022-10-03T21:20:47.433Z,100562.72
2022-10-03T21:23:21.403Z,100562.81
2022-10-03T21:25:52.196Z,100573.25
2022-10-03T21:28:25.307Z,100575.00
2022-10-03T21:31:13.333Z,100569.16
2022-10-03T21:33:49.643Z,100575.44
2022-10-03T21:36:25.144Z,100570.63
2022-10-03T21:38:53.278Z,100557.81
2022-10-03T21:41:28.099Z,100573.94
2022-10-03T21:43:59.657Z,100572.72
2022-10-03T21:46:36.102Z,100565.63
2022-10-03T21:49:31.812Z,100559.78
2022-10-03T21:52:25.368Z,100554.81
2022-10-03T21:55:51.186Z,100553.53
2022-10-03T21:58:58.190Z,100551.25
2022-10-03T22:01:34.025Z,100550.19
2022-10-03T22:04:07.298Z,100555.09
2022-10-03T22:06:44.349Z,100559.03
2022-10-03T22:09:14.752Z,100552.69
2022-10-03T22:11:50.044Z,100554.44
2022-10-03T22:14:28.862Z,100548.69
2022-10-03T22:17:05.537Z,100545.53
2022-10-03T22:19:38.485Z,100560.72
2022-10-03T22:22:17.363Z,100562.34
2022-10-03T22:24:56.759Z,100567.78
2022-10-03T22:27:32.297Z,100571.25
2022-10-03T22:30:06.360Z,100575.34
2022-10-03T22:32:37.167Z,100580.56
2022-10-03T22:35:18.372Z,100570.50
2022-10-03T22:37:47.831Z,100578.53
2022-10-03T22:40:15.911Z,100574.59
2022-10-03T22:42:48.467Z,100580.19
2022-10-03T22:45:17.715Z,100581.22
2022-10-03T22:47:51.897Z,100575.84
2022-10-03T22:50:25.587Z,100580.00
2022-10-03T22:52:56.137Z,100580.50
2022-10-03T22:55:27.176Z,100579.66
2022-10-03T22:57:57.198Z,100588.47
2022-10-03T23:00:27.359Z,100588.19
2022-10-03T23:03:00.339Z,100580.81
2022-10-03T23:05:48.270Z,100592.06
2022-10-03T23:08:27.792Z,100586.13
2022-10-03T23:10:58.162Z,100579.03
2022-10-03T23:13:36.408Z,100593.41
2022-10-03T23:16:15.825Z,100593.81
2022-10-03T23:18:55.253Z,100596.00
2022-10-03T23:21:23.321Z,100603.91
2022-10-03T23:24:01.817Z,100601.63
2022-10-03T23:26:56.429Z,100601.53
2022-10-03T23:29:24.508Z,100602.69
2022-10-03T23:32:02.694Z,100594.75
2022-10-03T23:34:47.937Z,100596.25
2022-10-03T23:37:41.545Z,100600.81
2022-10-03T23:40:39.803Z,100609.59
2022-10-03T23:43:26.474Z,100611.72
2022-10-03T23:45:57.216Z,100602.91
2022-10-03T23:48:27.354Z,100599.41
2022-10-03T23:50:59.875Z,100600.47
2022-10-03T23:53:32.765Z,100602.97
2022-10-03T23:56:03.956Z,100611.81
2022-10-03T23:58:34.136Z,100614.59
